Time;durP1;ratioP1;P1;durP2;ratioP2;P2;SDS_P1;SDS_P2;PMS_P1;PMS_P2;Temp;Humidity;BMP_temperature;BMP_pressure;BME280_temperature;BME280_humidity;BME280_pressure;Samples;Min_cycle;Max_cycle;Signal;HPM_P1;HPM_P2
2023/09/23 00:00:15;;;;;;;1.52;1.20;;;17.40;71.00;;;;;;4995630;28;20125;-80
2023/09/23 00:02:44;;;;;;;2.13;1.63;;;17.40;71.00;;;;;;5010626;28;20112;-80
2023/09/23 00:05:11;;;;;;;1.30;1.20;;;17.40;71.00;;;;;;4994191;28;20038;-79
2023/09/23 00:07:38;;;;;;;1.42;1.33;;;17.30;71.00;;;;;;4995326;28;20042;-79
2023/09/23 00:10:08;;;;;;;1.27;1.17;;;17.30;71.00;;;;;;4995490;28;20438;-80
2023/09/23 00:12:35;;;;;;;1.42;1.33;;;17.30;71.00;;;;;;4978444;28;20419;-80
2023/09/23 00:15:03;;;;;;;1.65;1.40;;;17.30;71.00;;;;;;4993901;28;20026;-80
2023/09/23 00:17:29;;;;;;;1.30;1.20;;;17.30;71.00;;;;;;4993492;28;20031;-80
2023/09/23 00:19:56;;;;;;;2.15;1.40;;;17.30;71.10;;;;;;4993869;28;20057;-80
2023/09/23 00:22:21;;;;;;;1.48;1.10;;;17.30;71.00;;;;;;4994755;28;20499;-79
2023/09/23 00:24:48;;;;;;;0.98;0.98;;;17.30;71.00;;;;;;4993637;28;20521;-81
2023/09/23 00:27:13;;;;;;;1.00;1.00;;;17.20;71.00;;;;;;5009717;28;20022;-80
2023/09/23 00:29:39;;;;;;;1.20;1.10;;;17.20;71.00;;;;;;4993756;28;20038;-80
2023/09/23 00:32:05;;;;;;;1.20;1.10;;;17.20;71.00;;;;;;4978382;28;20041;-80
2023/09/23 00:34:31;;;;;;;0.80;0.80;;;17.20;71.10;;;;;;5010006;28;20438;-80
2023/09/23 00:36:57;;;;;;;1.42;1.10;;;17.20;71.00;;;;;;5009735;28;20038;-81
2023/09/23 00:39:22;;;;;;;0.80;0.80;;;17.10;71.00;;;;;;4993502;28;20077;-79
2023/09/23 00:41:48;;;;;;;1.38;1.17;;;17.10;71.00;;;;;;4977565;28;20085;-80
2023/09/23 00:44:14;;;;;;;0.90;0.90;;;17.10;71.00;;;;;;4977388;28;20037;-80
2023/09/23 00:46:44;;;;;;;1.13;0.90;;;17.10;71.00;;;;;;4993420;28;20128;-81
2023/09/23 00:49:12;;;;;;;1.10;1.00;;;17.00;71.00;;;;;;4993527;28;20133;-80
2023/09/23 00:51:39;;;;;;;1.33;1.10;;;17.10;71.10;;;;;;4993269;28;20033;-81
2023/09/23 00:54:06;;;;;;;1.42;1.05;;;17.00;71.00;;;;;;4977856;28;20038;-80
2023/09/23 00:56:36;;;;;;;1.10;0.95;;;17.00;71.00;;;;;;4993990;28;20027;-80
2023/09/23 00:59:06;;;;;;;1.20;1.10;;;17.00;71.10;;;;;;4993135;28;20137;-80
2023/09/23 01:01:32;;;;;;;2.10;0.90;;;17.00;71.10;;;;;;4993280;28;20038;-80
2023/09/23 01:03:57;;;;;;;0.98;0.90;;;16.90;71.00;;;;;;4977602;28;20045;-80
2023/09/23 01:06:27;;;;;;;1.00;0.90;;;16.90;71.00;;;;;;4977548;28;20356;-80
2023/09/23 01:08:54;;;;;;;1.15;0.90;;;16.90;71.00;;;;;;4993072;28;20030;-80
2023/09/23 01:11:21;;;;;;;0.90;0.90;;;16.90;71.00;;;;;;4994248;28;20042;-81
2023/09/23 01:13:50;;;;;;;0.90;0.90;;;16.90;71.00;;;;;;4993003;28;20483;-80
2023/09/23 01:16:16;;;;;;;1.20;1.10;;;16.90;71.10;;;;;;4992908;28;20034;-80
2023/09/23 01:18:49;;;;;;;1.13;1.00;;;16.80;71.00;;;;;;4992780;28;20035;-80
2023/09/23 01:21:15;;;;;;;1.05;0.98;;;16.80;71.00;;;;;;5009085;28;20062;-80
2023/09/23 01:23:43;;;;;;;1.13;1.02;;;16.80;71.00;;;;;;4993060;28;20089;-80
2023/09/23 01:26:11;;;;;;;1.35;1.15;;;16.80;71.10;;;;;;4993514;28;20038;-80
2023/09/23 01:28:38;;;;;;;1.10;1.00;;;16.80;71.10;;;;;;4992865;28;20030;-79
2023/09/23 01:31:04;;;;;;;1.27;1.17;;;16.80;71.10;;;;;;5008746;28;20041;-80
2023/09/23 01:33:31;;;;;;;0.90;0.90;;;16.80;71.10;;;;;;5010497;28;20030;-79
2023/09/23 01:36:02;;;;;;;1.20;1.10;;;16.70;71.10;;;;;;5013383;28;20077;-80
2023/09/23 01:38:29;;;;;;;1.33;1.20;;;16.70;71.10;;;;;;4997052;28;20077;-80
2023/09/23 01:40:55;;;;;;;1.67;1.30;;;16.70;71.10;;;;;;4997938;28;20088;-80
2023/09/23 01:43:21;;;;;;;1.40;1.30;;;16.70;71.70;;;;;;5013030;28;20030;-79
2023/09/23 01:45:47;;;;;;;1.50;1.40;;;16.70;71.10;;;;;;4997488;28;20092;-80
2023/09/23 01:48:14;;;;;;;1.63;1.33;;;16.70;71.10;;;;;;4996228;28;20121;-80
2023/09/23 01:50:41;;;;;;;1.50;1.40;;;16.60;71.10;;;;;;4980347;28;20539;-80
2023/09/23 01:53:08;;;;;;;1.90;1.63;;;16.60;71.10;;;;;;4980802;28;20521;-80
2023/09/23 01:55:34;;;;;;;2.92;2.00;;;16.60;71.10;;;;;;4996625;28;20033;-81
2023/09/23 01:58:01;;;;;;;2.00;1.70;;;16.60;71.10;;;;;;4996931;28;20109;-80
2023/09/23 02:00:28;;;;;;;2.35;1.70;;;16.60;71.10;;;;;;4981145;28;20161;-81
2023/09/23 02:02:56;;;;;;;2.95;2.20;;;16.60;71.20;;;;;;5013595;28;20042;-80
2023/09/23 02:05:28;;;;;;;2.47;2.15;;;16.60;71.20;;;;;;4999711;28;20530;-80
2023/09/23 02:07:54;;;;;;;2.58;2.10;;;16.50;71.20;;;;;;5000101;28;20042;-80
2023/09/23 02:10:26;;;;;;;2.85;2.20;;;16.50;71.20;;;;;;5000513;28;20041;-80
2023/09/23 02:12:52;;;;;;;3.08;2.53;;;16.50;71.20;;;;;;5019074;28;20026;-80
2023/09/23 02:15:18;;;;;;;3.13;2.42;;;16.50;71.20;;;;;;5001804;28;20466;-80
2023/09/23 02:17:45;;;;;;;3.22;2.63;;;16.50;71.20;;;;;;4983112;28;20033;-80
2023/09/23 02:20:24;;;;;;;3.28;2.40;;;16.50;71.30;;;;;;4998192;28;20034;-80
2023/09/23 02:22:53;;;;;;;3.13;2.63;;;16.40;71.20;;;;;;4982598;28;20431;-81
2023/09/23 02:25:24;;;;;;;3.90;2.83;;;16.40;71.30;;;;;;5012329;28;20026;-80
2023/09/23 02:27:51;;;;;;;3.95;3.05;;;16.40;71.30;;;;;;4980336;28;20034;-81
2023/09/23 02:30:18;;;;;;;3.42;2.88;;;16.40;71.30;;;;;;4995811;28;20026;-80
2023/09/23 02:32:46;;;;;;;3.47;2.92;;;16.40;71.30;;;;;;4980142;28;20040;-80
2023/09/23 02:35:15;;;;;;;3.50;2.90;;;16.40;71.40;;;;;;4979542;28;20038;-80
2023/09/23 02:37:50;;;;;;;3.45;2.97;;;16.40;71.40;;;;;;5012100;28;20113;-80
2023/09/23 02:40:17;;;;;;;3.58;2.95;;;16.40;71.50;;;;;;4996129;28;20069;-80
2023/09/23 02:42:44;;;;;;;4.97;3.33;;;16.40;71.40;;;;;;4995329;28;20040;-80
2023/09/23 02:45:12;;;;;;;3.65;2.90;;;16.40;71.40;;;;;;4995626;28;20066;-80
2023/09/23 02:47:39;;;;;;;4.10;3.50;;;16.40;71.50;;;;;;4995295;28;20121;-80
2023/09/23 02:50:09;;;;;;;4.32;3.33;;;16.30;71.40;;;;;;4995109;28;20084;-80
2023/09/23 02:52:38;;;;;;;4.63;3.40;;;16.30;71.40;;;;;;4995255;28;20077;-80
2023/09/23 02:55:12;;;;;;;4.25;3.40;;;16.30;71.40;;;;;;4996390;28;20105;-80
2023/09/23 02:57:45;;;;;;;4.00;3.35;;;16.30;71.50;;;;;;4996315;28;20061;-80
2023/09/23 03:00:17;;;;;;;4.28;3.65;;;16.30;71.50;;;;;;4996297;28;20030;-80
2023/09/23 03:02:54;;;;;;;4.38;3.55;;;16.30;71.40;;;;;;4995315;28;20459;-80
2023/09/23 03:05:31;;;;;;;4.82;3.97;;;16.30;71.50;;;;;;4995396;28;20253;-79
2023/09/23 03:07:58;;;;;;;4.65;3.35;;;16.30;71.50;;;;;;4980872;28;20058;-80
2023/09/23 03:10:39;;;;;;;5.28;3.65;;;16.30;71.50;;;;;;5012193;28;20119;-79
2023/09/23 03:13:11;;;;;;;4.60;3.83;;;16.30;71.50;;;;;;4980968;28;20041;-79
2023/09/23 03:15:41;;;;;;;4.65;3.83;;;16.30;71.50;;;;;;4995876;28;20030;-80
2023/09/23 03:18:07;;;;;;;5.10;4.30;;;16.30;71.50;;;;;;5012140;28;20031;-80
2023/09/23 03:20:36;;;;;;;4.70;3.80;;;16.20;71.50;;;;;;4979009;28;20502;-80
2023/09/23 03:23:09;;;;;;;4.30;3.63;;;16.20;71.50;;;;;;4978702;28;20053;-80
2023/09/23 03:25:43;;;;;;;5.05;4.05;;;16.20;71.50;;;;;;4995168;28;20375;-80
2023/09/23 03:28:09;;;;;;;4.97;4.10;;;16.20;71.60;;;;;;4995470;28;20366;-79
2023/09/23 03:30:35;;;;;;;4.60;4.00;;;16.20;71.50;;;;;;4978339;28;20039;-80
2023/09/23 03:33:02;;;;;;;4.88;4.03;;;16.20;71.50;;;;;;5011248;28;20092;-80
2023/09/23 03:35:30;;;;;;;4.78;3.83;;;16.20;71.50;;;;;;4978602;28;20030;-80
2023/09/23 03:37:56;;;;;;;5.85;4.65;;;16.20;71.60;;;;;;5011797;28;20031;-79
2023/09/23 03:40:25;;;;;;;4.85;4.03;;;16.20;71.50;;;;;;4979119;28;20598;-79
2023/09/23 03:42:51;;;;;;;6.15;4.47;;;16.20;71.60;;;;;;4994062;28;20042;-79
2023/09/23 03:45:17;;;;;;;4.90;4.03;;;16.20;71.60;;;;;;4979097;28;20034;-80
2023/09/23 03:47:45;;;;;;;5.15;4.28;;;16.20;71.60;;;;;;4978776;28;20038;-80
2023/09/23 03:50:15;;;;;;;6.10;4.43;;;16.20;71.60;;;;;;4994351;28;20038;-80
2023/09/23 03:52:41;;;;;;;5.20;4.10;;;16.20;71.70;;;;;;4995561;28;20069;-79
2023/09/23 03:55:09;;;;;;;5.63;4.18;;;16.20;71.60;;;;;;4978044;28;20114;-80
2023/09/23 03:57:35;;;;;;;4.22;3.72;;;16.20;71.70;;;;;;5009945;28;20133;-80
2023/09/23 04:00:06;;;;;;;5.03;3.92;;;16.20;71.60;;;;;;5010537;28;20065;-79
2023/09/23 04:02:39;;;;;;;5.40;4.32;;;16.20;71.70;;;;;;4994720;28;20054;-80
2023/09/23 04:05:05;;;;;;;5.45;4.53;;;16.20;71.60;;;;;;4994238;28;20043;-80
2023/09/23 04:07:32;;;;;;;5.50;4.00;;;16.20;71.70;;;;;;4994281;28;20058;-80
2023/09/23 04:09:58;;;;;;;5.40;4.10;;;16.20;71.70;;;;;;5010627;28;20042;-79
2023/09/23 04:12:24;;;;;;;6.45;4.88;;;16.20;71.70;;;;;;5010184;28;20038;-81
2023/09/23 04:14:50;;;;;;;5.68;4.70;;;16.20;71.70;;;;;;4978118;28;20030;-79
2023/09/23 04:17:16;;;;;;;4.95;4.13;;;16.20;71.70;;;;;;5010148;28;20093;-79
2023/09/23 04:19:41;;;;;;;5.38;4.03;;;16.20;71.70;;;;;;4993900;28;20026;-80
2023/09/23 04:22:11;;;;;;;6.82;4.57;;;16.20;71.70;;;;;;4994187;28;20065;-80
2023/09/23 04:24:36;;;;;;;5.00;4.18;;;16.10;71.70;;;;;;4993764;28;20089;-79
2023/09/23 04:27:02;;;;;;;5.25;4.20;;;16.20;71.70;;;;;;5009990;28;20415;-80
2023/09/23 04:29:30;;;;;;;5.97;4.60;;;16.10;71.70;;;;;;4993479;28;20031;-80
2023/09/23 04:31:56;;;;;;;5.07;4.07;;;16.20;71.80;;;;;;4977951;28;20100;-80
2023/09/23 04:34:24;;;;;;;6.15;4.75;;;16.10;71.70;;;;;;4977468;28;20050;-80
2023/09/23 04:36:50;;;;;;;5.25;4.40;;;16.10;71.70;;;;;;4961730;28;20113;-79
2023/09/23 04:39:16;;;;;;;6.72;4.82;;;16.10;71.70;;;;;;4993337;28;20038;-79
2023/09/23 04:41:42;;;;;;;5.70;4.50;;;16.10;71.70;;;;;;4977801;28;20046;-78
2023/09/23 04:44:08;;;;;;;5.75;4.75;;;16.10;71.70;;;;;;4977187;28;20032;-81
2023/09/23 04:46:34;;;;;;;5.15;4.30;;;16.10;71.70;;;;;;4977501;28;20493;-79
2023/09/23 04:49:00;;;;;;;5.60;4.95;;;16.10;72.40;;;;;;4977293;28;20030;-79
2023/09/23 04:51:26;;;;;;;5.75;4.68;;;16.10;71.70;;;;;;4976902;28;20369;-80
2023/09/23 04:53:52;;;;;;;5.75;4.45;;;16.10;71.80;;;;;;4976841;28;20034;-79
2023/09/23 04:56:18;;;;;;;6.35;5.07;;;16.10;71.80;;;;;;4977700;28;20440;-79
2023/09/23 04:58:44;;;;;;;6.03;4.70;;;16.10;71.80;;;;;;5009276;28;20460;-79
2023/09/23 05:01:14;;;;;;;6.38;4.85;;;16.10;71.80;;;;;;4993443;28;20046;-79
2023/09/23 05:03:42;;;;;;;5.70;4.90;;;16.10;71.80;;;;;;4993477;28;20042;-79
2023/09/23 05:06:11;;;;;;;5.78;5.00;;;16.10;71.80;;;;;;4994499;28;20061;-79
2023/09/23 05:08:36;;;;;;;6.30;5.10;;;16.10;71.80;;;;;;4976793;28;20081;-79
2023/09/23 05:11:03;;;;;;;7.43;5.30;;;16.10;71.80;;;;;;4961006;28;20418;-79
2023/09/23 05:13:30;;;;;;;6.05;4.88;;;16.10;71.80;;;;;;4977923;28;20427;-79
2023/09/23 05:15:55;;;;;;;5.50;4.65;;;16.10;71.80;;;;;;4994628;28;20460;-79
2023/09/23 05:18:24;;;;;;;5.57;4.40;;;16.10;71.80;;;;;;4992661;28;20037;-79
2023/09/23 05:20:49;;;;;;;5.50;4.53;;;16.10;71.80;;;;;;4993152;28;20030;-79
2023/09/23 05:23:16;;;;;;;5.95;5.30;;;16.10;71.80;;;;;;5008946;28;20041;-79
2023/09/23 05:25:42;;;;;;;5.43;4.22;;;16.10;71.80;;;;;;4960699;28;20031;-80
2023/09/23 05:28:10;;;;;;;5.57;4.45;;;16.10;71.80;;;;;;4992807;28;20129;-80
2023/09/23 05:30:36;;;;;;;5.88;4.78;;;16.00;71.80;;;;;;4993434;28;20067;-79
2023/09/23 05:33:02;;;;;;;6.07;4.50;;;16.10;71.80;;;;;;4993457;28;20060;-79
2023/09/23 05:35:28;;;;;;;5.53;4.43;;;16.10;71.80;;;;;;4993058;28;20587;-80
2023/09/23 05:37:54;;;;;;;5.53;4.63;;;16.10;71.80;;;;;;4976602;28;20066;-80
2023/09/23 05:42:49;;;;;;;5.80;4.50;;;16.10;71.80;;;;;;4992694;28;20060;-83
2023/09/23 05:45:15;;;;;;;5.30;4.50;;;16.10;71.80;;;;;;4976649;28;20368;-80
2023/09/23 05:47:41;;;;;;;4.45;3.83;;;16.10;71.80;;;;;;4992417;28;20037;-82
2023/09/23 05:50:09;;;;;;;5.15;4.05;;;16.00;71.80;;;;;;4992419;28;20038;-81
2023/09/23 05:52:36;;;;;;;5.32;4.15;;;16.00;71.80;;;;;;4976895;28;20041;-80
2023/09/23 05:55:04;;;;;;;5.25;4.38;;;16.00;71.80;;;;;;4992703;28;20031;-80
2023/09/23 05:57:30;;;;;;;5.03;4.32;;;16.00;71.80;;;;;;4976781;28;20054;-82
2023/09/23 05:59:56;;;;;;;4.80;4.15;;;16.00;71.80;;;;;;5008667;28;20038;-79
2023/09/23 06:02:22;;;;;;;4.93;3.67;;;16.00;71.80;;;;;;4992175;28;20049;-80
2023/09/23 06:04:48;;;;;;;5.20;3.92;;;16.00;71.80;;;;;;4976713;28;20352;-80
2023/09/23 06:07:13;;;;;;;4.80;4.07;;;16.00;71.80;;;;;;4976196;28;20117;-80
2023/09/23 06:09:46;;;;;;;4.72;3.90;;;16.00;72.50;;;;;;4993493;28;20411;-79
2023/09/23 06:12:12;;;;;;;4.22;3.50;;;16.00;71.90;;;;;;5009293;28;20045;-82
2023/09/23 06:14:38;;;;;;;5.30;3.75;;;16.00;71.80;;;;;;4992366;28;20037;-80
2023/09/23 06:17:04;;;;;;;4.72;3.53;;;16.00;71.80;;;;;;5008707;28;20038;-79
2023/09/23 06:19:33;;;;;;;4.80;3.60;;;16.00;71.80;;;;;;4977171;28;20027;-79
2023/09/23 06:21:59;;;;;;;4.28;3.45;;;16.00;71.90;;;;;;5012562;28;20042;-80
2023/09/23 06:24:25;;;;;;;4.30;3.45;;;16.00;71.80;;;;;;4996177;28;20121;-80
2023/09/23 06:26:51;;;;;;;5.43;3.63;;;16.00;71.90;;;;;;4996298;28;20031;-80
2023/09/23 06:29:16;;;;;;;3.95;3.00;;;16.00;71.80;;;;;;4997424;28;20088;-80
2023/09/23 06:31:42;;;;;;;4.10;3.17;;;16.00;71.80;;;;;;4997515;28;20483;-80
2023/09/23 06:34:08;;;;;;;3.83;2.95;;;16.00;71.80;;;;;;5014775;28;20057;-79
2023/09/23 06:36:34;;;;;;;4.68;3.40;;;16.00;71.80;;;;;;4997679;28;20030;-83
2023/09/23 06:39:00;;;;;;;5.20;3.33;;;16.00;71.80;;;;;;4998669;28;20030;-81
2023/09/23 06:41:26;;;;;;;3.97;3.40;;;16.00;71.90;;;;;;4997309;28;20043;-80
2023/09/23 06:43:52;;;;;;;3.95;2.95;;;16.00;71.90;;;;;;5012481;28;20459;-79
2023/09/23 06:46:18;;;;;;;4.07;3.28;;;16.00;71.90;;;;;;4995631;28;20034;-80
2023/09/23 06:48:43;;;;;;;3.47;2.90;;;16.00;71.90;;;;;;4995555;28;20476;-83
2023/09/23 06:51:10;;;;;;;3.35;2.65;;;16.00;71.80;;;;;;4996291;28;20129;-79
2023/09/23 06:53:36;;;;;;;3.75;2.88;;;16.00;71.90;;;;;;4995360;28;20417;-79
2023/09/23 06:56:02;;;;;;;3.92;3.00;;;16.00;71.80;;;;;;4994952;28;20026;-79
2023/09/23 06:58:27;;;;;;;4.88;3.30;;;16.00;71.90;;;;;;4995087;28;20407;-79
2023/09/23 07:00:54;;;;;;;3.97;2.97;;;16.00;71.90;;;;;;4995211;28;20498;-80
2023/09/23 07:03:20;;;;;;;3.63;2.85;;;16.00;71.90;;;;;;4995251;28;20535;-79
2023/09/23 07:05:46;;;;;;;3.00;2.33;;;16.00;71.90;;;;;;4995197;28;20133;-80
2023/09/23 07:08:12;;;;;;;3.30;2.88;;;16.00;71.90;;;;;;5012261;28;20065;-81
2023/09/23 07:10:39;;;;;;;4.32;3.25;;;16.00;71.90;;;;;;4995011;28;20096;-84
2023/09/23 07:13:06;;;;;;;4.03;3.28;;;16.00;71.90;;;;;;4995085;28;20038;-80
2023/09/23 07:15:40;;;;;;;3.55;2.85;;;16.10;72.00;;;;;;4995044;28;20058;-80
2023/09/23 07:18:06;;;;;;;3.83;3.03;;;16.10;72.00;;;;;;4995094;28;20038;-80
2023/09/23 07:20:33;;;;;;;3.67;2.90;;;16.10;71.90;;;;;;4996986;28;20027;-80
2023/09/23 07:23:00;;;;;;;3.88;2.80;;;16.00;71.90;;;;;;4994721;28;20034;-79
2023/09/23 07:25:26;;;;;;;4.03;3.15;;;16.10;71.90;;;;;;4995197;28;20451;-80
2023/09/23 07:27:53;;;;;;;3.40;2.75;;;16.10;71.90;;;;;;4995867;28;20026;-80
2023/09/23 07:30:19;;;;;;;3.75;2.97;;;16.10;72.00;;;;;;4978813;28;20129;-80
2023/09/23 07:32:45;;;;;;;4.70;3.20;;;16.10;71.90;;;;;;4977989;28;20037;-79
2023/09/23 07:35:11;;;;;;;4.10;3.00;;;16.10;71.90;;;;;;4994501;28;20030;-79
2023/09/23 07:37:36;;;;;;;3.33;2.78;;;16.10;71.90;;;;;;5010653;28;20594;-80
2023/09/23 07:40:03;;;;;;;3.08;2.50;;;16.10;71.90;;;;;;5010941;28;20034;-80
2023/09/23 07:42:29;;;;;;;3.30;2.45;;;16.10;71.90;;;;;;5010694;28;20034;-81
2023/09/23 07:44:55;;;;;;;4.10;2.92;;;16.20;72.00;;;;;;4995236;28;20030;-79
2023/09/23 07:47:21;;;;;;;3.75;2.60;;;16.10;71.90;;;;;;4994510;28;20533;-81
2023/09/23 07:49:46;;;;;;;3.25;2.55;;;16.20;72.60;;;;;;4995841;28;20388;-80
2023/09/23 07:52:12;;;;;;;4.20;2.50;;;16.20;72.00;;;;;;5010292;28;20517;-80
2023/09/23 07:54:40;;;;;;;2.90;2.22;;;16.20;72.00;;;;;;4994229;28;20070;-79
2023/09/23 07:57:06;;;;;;;3.13;2.40;;;16.20;72.00;;;;;;4995439;28;20034;-79
2023/09/23 07:59:32;;;;;;;3.38;2.60;;;16.20;72.00;;;;;;4981199;28;20030;-80
2023/09/23 08:01:58;;;;;;;3.72;2.50;;;16.20;72.00;;;;;;4981708;28;20048;-80
2023/09/23 08:04:23;;;;;;;3.15;2.55;;;16.20;72.00;;;;;;4997251;28;20442;-79
2023/09/23 08:06:49;;;;;;;3.35;2.20;;;16.30;72.00;;;;;;4996935;28;20030;-79
2023/09/23 08:09:15;;;;;;;3.25;2.55;;;16.30;72.00;;;;;;5013543;28;20029;-80
2023/09/23 08:11:41;;;;;;;2.40;2.10;;;16.30;72.00;;;;;;4997111;28;20387;-80
2023/09/23 08:14:06;;;;;;;4.57;2.60;;;16.30;72.00;;;;;;4981960;28;20041;-78
2023/09/23 08:16:32;;;;;;;3.38;2.53;;;16.30;72.00;;;;;;5013742;28;20410;-80
2023/09/23 08:18:58;;;;;;;3.03;2.33;;;16.30;72.00;;;;;;5014446;28;20439;-79
2023/09/23 08:21:24;;;;;;;3.08;2.35;;;16.30;72.00;;;;;;4964967;28;20046;-83
2023/09/23 08:23:49;;;;;;;3.53;2.50;;;16.30;72.00;;;;;;5013359;28;20041;-83
2023/09/23 08:26:15;;;;;;;4.22;2.55;;;16.40;72.00;;;;;;4981641;28;20080;-80
2023/09/23 08:28:42;;;;;;;3.85;2.38;;;16.40;72.00;;;;;;4997563;28;20438;-80
2023/09/23 08:31:08;;;;;;;3.25;2.13;;;16.40;72.00;;;;;;4996979;28;20040;-79
2023/09/23 08:33:35;;;;;;;3.88;2.70;;;16.40;72.00;;;;;;5013353;28;20025;-81
2023/09/23 08:36:01;;;;;;;2.55;2.20;;;16.40;72.00;;;;;;4997473;28;20128;-81
2023/09/23 08:38:27;;;;;;;3.40;2.28;;;16.50;72.00;;;;;;4996565;28;20219;-80
2023/09/23 08:40:53;;;;;;;3.00;2.13;;;16.50;72.00;;;;;;4980549;28;20069;-81
2023/09/23 08:43:36;;;;;;;2.67;2.00;;;16.50;72.00;;;;;;5013870;28;20038;-80
2023/09/23 08:46:09;;;;;;;3.10;2.30;;;16.60;72.10;;;;;;4997396;28;20096;-81
2023/09/23 08:48:35;;;;;;;2.20;2.00;;;16.60;71.90;;;;;;4996723;28;20038;-80
2023/09/23 08:51:03;;;;;;;2.40;2.00;;;16.70;72.00;;;;;;5012581;28;20022;-80
2023/09/23 08:53:34;;;;;;;2.40;1.92;;;16.70;71.90;;;;;;4996703;28;20018;-81
2023/09/23 08:56:05;;;;;;;2.08;1.80;;;16.70;71.90;;;;;;4996629;28;20451;-80
2023/09/23 08:58:31;;;;;;;3.20;2.25;;;16.80;71.90;;;;;;5013856;28;20057;-80
2023/09/23 09:00:57;;;;;;;2.42;2.10;;;16.70;71.70;;;;;;5012995;28;20034;-78
2023/09/23 09:03:22;;;;;;;1.85;1.70;;;16.80;71.80;;;;;;5012680;28;20124;-79
2023/09/23 09:05:48;;;;;;;2.30;1.90;;;16.90;71.80;;;;;;4996948;28;20142;-81
2023/09/23 09:08:14;;;;;;;2.15;1.98;;;16.90;71.80;;;;;;5013695;28;20026;-80
2023/09/23 09:10:40;;;;;;;2.40;2.10;;;16.90;71.70;;;;;;4980274;28;20030;-87
2023/09/23 09:13:11;;;;;;;3.10;2.08;;;17.00;71.70;;;;;;4996632;28;20029;-86
2023/09/23 09:15:37;;;;;;;2.08;1.80;;;17.00;71.70;;;;;;4997521;28;20026;-86
2023/09/23 09:18:04;;;;;;;2.58;2.15;;;17.00;71.70;;;;;;4980525;28;20034;-85
2023/09/23 09:20:31;;;;;;;1.90;1.73;;;17.00;71.60;;;;;;5014202;28;20480;-87
2023/09/23 09:22:57;;;;;;;2.50;1.83;;;17.10;71.70;;;;;;4997838;28;20034;-85
2023/09/23 09:25:23;;;;;;;2.58;2.10;;;17.10;71.60;;;;;;4996793;28;20034;-85
2023/09/23 09:27:53;;;;;;;2.15;1.70;;;17.10;71.60;;;;;;4996669;28;20026;-84
2023/09/23 09:30:19;;;;;;;2.20;1.73;;;17.10;71.60;;;;;;4996544;28;20026;-84
2023/09/23 09:32:47;;;;;;;2.25;1.65;;;17.20;71.60;;;;;;5013401;28;20120;-84
2023/09/23 09:35:14;;;;;;;2.45;1.73;;;17.20;71.60;;;;;;4996536;28;20033;-84
2023/09/23 09:37:45;;;;;;;2.78;1.80;;;17.20;71.50;;;;;;4996358;28;20034;-84
2023/09/23 09:40:21;;;;;;;2.00;1.80;;;17.20;71.50;;;;;;4996559;28;20073;-83
2023/09/23 09:42:59;;;;;;;1.75;1.55;;;17.30;71.50;;;;;;5013536;28;20048;-84
2023/09/23 09:45:27;;;;;;;1.63;1.52;;;17.30;71.60;;;;;;4964787;28;20053;-83
2023/09/23 09:47:57;;;;;;;2.55;1.70;;;17.30;71.40;;;;;;4996259;28;20029;-83
2023/09/23 09:50:25;;;;;;;1.55;1.42;;;17.30;71.40;;;;;;5013013;28;20040;-83
2023/09/23 09:52:51;;;;;;;2.33;1.75;;;17.40;71.50;;;;;;4964178;28;20029;-85
2023/09/23 09:55:19;;;;;;;1.92;1.65;;;17.40;71.50;;;;;;4998339;28;20367;-84
2023/09/23 09:57:47;;;;;;;3.17;1.85;;;17.40;71.50;;;;;;5000341;28;20097;-84
2023/09/23 10:02:49;;;;;;;1.92;1.58;;;17.40;71.50;;;;;;5018267;28;20037;-84
2023/09/23 10:05:17;;;;;;;2.20;1.80;;;17.50;71.50;;;;;;5016656;28;20022;-84
2023/09/23 10:08:15;;;;;;;2.33;1.58;;;17.50;71.60;;;;;;5000016;28;20061;-84
2023/09/23 10:10:48;;;;;;;1.95;1.70;;;17.50;71.60;;;;;;4999038;28;20046;-84
2023/09/23 10:13:23;;;;;;;2.05;1.67;;;17.50;71.60;;;;;;5000135;28;20036;-82
2023/09/23 10:16:02;;;;;;;;;;;17.40;71.50;;;;;;5017353;28;20037;-83
2023/09/23 10:18:34;;;;;;;1.73;1.38;;;17.50;71.40;;;;;;5000068;28;20037;-85
2023/09/23 10:21:02;;;;;;;1.70;1.50;;;17.50;71.40;;;;;;4999567;28;20033;-83
2023/09/23 10:23:35;;;;;;;2.53;1.60;;;17.50;71.40;;;;;;4999379;28;20030;-84
2023/09/23 10:26:16;;;;;;;1.90;1.55;;;17.50;71.50;;;;;;4983476;28;20030;-83
2023/09/23 10:28:43;;;;;;;2.55;1.48;;;17.50;71.60;;;;;;4983352;28;20026;-84
2023/09/23 10:31:10;;;;;;;2.05;1.50;;;17.50;71.50;;;;;;4999544;28;20030;-82
2023/09/23 10:33:37;;;;;;;2.20;1.63;;;17.60;71.60;;;;;;4999125;28;20026;-83
2023/09/23 10:36:04;;;;;;;2.47;1.65;;;17.60;71.60;;;;;;4999463;28;20042;-84
2023/09/23 10:38:35;;;;;;;2.55;1.48;;;17.60;71.60;;;;;;4983458;28;20030;-83
2023/09/23 10:41:02;;;;;;;1.40;1.30;;;17.60;71.60;;;;;;4999586;28;20030;-83
2023/09/23 10:43:29;;;;;;;2.08;1.60;;;17.60;71.60;;;;;;4999539;28;20041;-83
2023/09/23 10:45:59;;;;;;;3.53;1.63;;;17.60;71.60;;;;;;5000180;28;20026;-84
2023/09/23 10:48:28;;;;;;;1.90;1.40;;;17.60;71.50;;;;;;5015827;28;20108;-83
2023/09/23 10:50:55;;;;;;;2.30;1.40;;;17.70;71.60;;;;;;4967771;28;20034;-82
2023/09/23 10:53:38;;;;;;;1.73;1.40;;;17.70;71.50;;;;;;4983524;28;20041;-83
2023/09/23 10:56:10;;;;;;;1.40;1.30;;;17.80;71.50;;;;;;4987170;28;20029;-83
2023/09/23 10:58:37;;;;;;;1.58;1.40;;;17.80;71.40;;;;;;5007104;28;20045;-83
2023/09/23 11:01:05;;;;;;;1.85;1.40;;;17.80;71.40;;;;;;5027405;28;20057;-83
2023/09/23 11:03:36;;;;;;;1.50;1.40;;;17.80;71.40;;;;;;4997628;28;20490;-84
2023/09/23 11:06:04;;;;;;;1.92;1.40;;;17.90;71.40;;;;;;5010434;28;20037;-82
2023/09/23 11:08:31;;;;;;;1.42;1.33;;;17.90;71.30;;;;;;4993634;28;20044;-85
2023/09/23 11:10:57;;;;;;;1.55;1.40;;;17.90;71.30;;;;;;5020976;28;20026;-81
2023/09/23 11:13:25;;;;;;;1.70;1.40;;;18.00;71.30;;;;;;5015920;28;20032;-82
2023/09/23 11:15:51;;;;;;;2.00;1.45;;;18.00;71.30;;;;;;5015595;28;20100;-82
2023/09/23 11:18:18;;;;;;;1.30;1.20;;;18.00;71.20;;;;;;4998503;28;20463;-82
2023/09/23 11:20:45;;;;;;;1.52;1.30;;;18.00;71.20;;;;;;4965833;28;20149;-84
2023/09/23 11:23:12;;;;;;;3.33;1.65;;;18.10;71.20;;;;;;4997999;28;20092;-82
2023/09/23 11:25:39;;;;;;;1.98;1.30;;;18.10;71.10;;;;;;5016309;28;20034;-85
2023/09/23 11:28:05;;;;;;;1.90;1.50;;;18.10;71.10;;;;;;5014717;28;20030;-82
2023/09/23 11:30:31;;;;;;;2.90;1.70;;;18.20;71.10;;;;;;4966217;28;20425;-83
2023/09/23 11:32:57;;;;;;;1.50;1.40;;;18.20;71.10;;;;;;5014715;28;20505;-83
2023/09/23 11:35:23;;;;;;;2.70;1.48;;;18.20;71.00;;;;;;4965869;28;20034;-82
2023/09/23 11:37:51;;;;;;;1.35;1.25;;;18.20;70.90;;;;;;4998025;28;20026;-82
2023/09/23 11:40:18;;;;;;;2.95;1.60;;;18.30;71.00;;;;;;4998048;28;20048;-82
2023/09/23 11:42:44;;;;;;;1.60;1.50;;;18.30;70.90;;;;;;4997822;28;20038;-82
2023/09/23 11:45:11;;;;;;;2.88;1.30;;;18.30;70.90;;;;;;5014522;28;20038;-83
2023/09/23 11:47:38;;;;;;;2.83;1.52;;;18.40;70.90;;;;;;4997796;28;20080;-83
2023/09/23 11:50:06;;;;;;;1.27;1.17;;;18.40;70.90;;;;;;5013730;28;20029;-83
2023/09/23 11:52:39;;;;;;;1.55;1.35;;;18.40;70.80;;;;;;4997693;28;20049;-82
2023/09/23 11:55:05;;;;;;;1.35;1.25;;;18.40;70.90;;;;;;5014612;28;20030;-81
2023/09/23 11:57:31;;;;;;;2.05;1.38;;;18.40;70.90;;;;;;5014200;28;20054;-84
2023/09/23 11:59:57;;;;;;;1.60;1.27;;;18.40;70.90;;;;;;5014001;28;20381;-82
2023/09/23 12:02:22;;;;;;;2.20;1.30;;;18.40;70.90;;;;;;4997891;28;20034;-83
2023/09/23 12:04:48;;;;;;;2.00;1.40;;;18.50;70.90;;;;;;4997184;28;20026;-83
2023/09/23 12:07:16;;;;;;;2.30;1.40;;;18.40;70.80;;;;;;4997415;28;20038;-82
2023/09/23 12:09:43;;;;;;;2.20;1.20;;;18.50;70.90;;;;;;5013906;28;20033;-82
2023/09/23 12:12:11;;;;;;;2.58;1.30;;;18.50;70.90;;;;;;4997145;28;20128;-83
2023/09/23 12:14:38;;;;;;;1.75;1.30;;;18.50;70.90;;;;;;4981264;28;20113;-83
2023/09/23 12:17:04;;;;;;;1.85;1.40;;;18.50;70.90;;;;;;4996471;28;20026;-82
2023/09/23 12:19:30;;;;;;;1.92;1.13;;;18.50;70.90;;;;;;4997231;28;20030;-83
2023/09/23 12:21:56;;;;;;;1.73;1.35;;;18.50;70.80;;;;;;4981374;28;20394;-83
2023/09/23 12:24:22;;;;;;;1.45;1.30;;;18.50;70.80;;;;;;5013428;28;20483;-83
2023/09/23 12:26:47;;;;;;;1.77;1.40;;;18.60;70.80;;;;;;5013865;28;20040;-83
2023/09/23 12:29:13;;;;;;;1.52;1.40;;;18.60;70.80;;;;;;5013348;28;20030;-82
2023/09/23 12:31:39;;;;;;;3.58;1.30;;;18.60;70.80;;;;;;4981388;28;20041;-83
2023/09/23 12:34:08;;;;;;;1.73;1.40;;;18.60;70.80;;;;;;4980756;28;20498;-83
2023/09/23 12:36:34;;;;;;;2.65;1.30;;;18.60;70.80;;;;;;4997762;28;20034;-83
2023/09/23 12:38:59;;;;;;;1.30;1.15;;;18.60;70.80;;;;;;4996893;28;20037;-82
2023/09/23 12:41:25;;;;;;;2.00;1.20;;;18.60;70.80;;;;;;5013297;28;20042;-83
2023/09/23 12:43:53;;;;;;;1.80;1.30;;;18.70;70.90;;;;;;4981097;28;20037;-82
2023/09/23 12:46:19;;;;;;;1.55;1.30;;;18.70;70.90;;;;;;4996904;28;20084;-83
2023/09/23 12:48:44;;;;;;;2.53;1.70;;;18.70;70.80;;;;;;4996820;28;20038;-82
2023/09/23 12:51:12;;;;;;;1.85;1.30;;;18.70;70.80;;;;;;4997230;28;20030;-83
2023/09/23 12:53:38;;;;;;;1.30;1.20;;;18.70;70.80;;;;;;4996617;28;20026;-83